sensor_id;sensor_type;location;lat;lon;timestamp;temperature;humidity
43810;DHT22;29440;48.208;11.162;2022-09-09T00:06:46;13.80;99.90
43810;DHT22;29440;48.208;11.162;2022-09-09T00:09:18;13.70;99.90
43810;DHT22;29440;48.208;11.162;2022-09-09T00:13:10;13.80;99.90
43810;DHT22;29440;48.208;11.162;2022-09-09T00:15:14;13.70;99.90
43810;DHT22;29440;48.208;11.162;2022-09-09T00:20:48;13.70;99.90
43810;DHT22;29440;48.208;11.162;2022-09-09T00:23:39;13.60;99.90
43810;DHT22;29440;48.208;11.162;2022-09-09T00:31:31;13.50;99.90
43810;DHT22;29440;48.208;11.162;2022-09-09T00:34:05;13.40;99.90
43810;DHT22;29440;48.208;11.162;2022-09-09T00:36:35;13.40;99.90
43810;DHT22;29440;48.208;11.162;2022-09-09T00:39:03;13.40;99.90
43810;DHT22;29440;48.208;11.162;2022-09-09T00:44:30;13.40;99.90
43810;DHT22;29440;48.208;11.162;2022-09-09T00:52:34;13.40;99.90
43810;DHT22;29440;48.208;11.162;2022-09-09T00:57:41;13.40;99.90
43810;DHT22;29440;48.208;11.162;2022-09-09T01:00:34;13.50;99.90
43810;DHT22;29440;48.208;11.162;2022-09-09T01:06:20;13.50;99.90
43810;DHT22;29440;48.208;11.162;2022-09-09T01:09:21;13.50;99.90
43810;DHT22;29440;48.208;11.162;2022-09-09T01:14:38;13.50;99.90
43810;DHT22;29440;48.208;11.162;2022-09-09T01:17:16;13.50;99.90
43810;DHT22;29440;48.208;11.162;2022-09-09T01:25:29;13.40;99.90
43810;DHT22;29440;48.208;11.162;2022-09-09T01:28:03;13.50;99.90
43810;DHT22;29440;48.208;11.162;2022-09-09T01:30:30;13.50;99.90
43810;DHT22;29440;48.208;11.162;2022-09-09T01:32:58;13.50;99.90
43810;DHT22;29440;48.208;11.162;2022-09-09T01:35:42;13.60;99.90
43810;DHT22;29440;48.208;11.162;2022-09-09T01:38:09;13.60;99.90
43810;DHT22;29440;48.208;11.162;2022-09-09T01:40:36;13.60;99.90
43810;DHT22;29440;48.208;11.162;2022-09-09T01:43:02;13.60;99.90
43810;DHT22;29440;48.208;11.162;2022-09-09T01:45:28;13.50;99.90
43810;DHT22;29440;48.208;11.162;2022-09-09T01:47:54;13.50;99.90
43810;DHT22;29440;48.208;11.162;2022-09-09T01:50:20;13.50;99.90
43810;DHT22;29440;48.208;11.162;2022-09-09T01:52:49;13.50;99.90
43810;DHT22;29440;48.208;11.162;2022-09-09T01:55:15;13.40;99.90
43810;DHT22;29440;48.208;11.162;2022-09-09T01:58:01;13.40;99.90
43810;DHT22;29440;48.208;11.162;2022-09-09T02:00:30;13.40;99.90
43810;DHT22;29440;48.208;11.162;2022-09-09T02:08:40;13.40;99.90
43810;DHT22;29440;48.208;11.162;2022-09-09T02:11:15;13.30;99.90
43810;DHT22;29440;48.208;11.162;2022-09-09T02:13:43;13.40;99.90
43810;DHT22;29440;48.208;11.162;2022-09-09T02:19:00;13.40;99.90
43810;DHT22;29440;48.208;11.162;2022-09-09T02:21:29;13.40;99.90
43810;DHT22;29440;48.208;11.162;2022-09-09T02:23:58;13.30;99.90
43810;DHT22;29440;48.208;11.162;2022-09-09T02:26:26;13.30;99.90
43810;DHT22;29440;48.208;11.162;2022-09-09T02:28:54;13.30;99.90
43810;DHT22;29440;48.208;11.162;2022-09-09T02:31:22;13.20;99.90
43810;DHT22;29440;48.208;11.162;2022-09-09T02:33:54;13.30;99.90
43810;DHT22;29440;48.208;11.162;2022-09-09T02:36:22;13.30;99.90
43810;DHT22;29440;48.208;11.162;2022-09-09T02:38:49;13.20;99.90
43810;DHT22;29440;48.208;11.162;2022-09-09T02:41:26;13.30;99.90
43810;DHT22;29440;48.208;11.162;2022-09-09T02:43:53;13.20;99.90
43810;DHT22;29440;48.208;11.162;2022-09-09T02:46:44;13.20;99.90
43810;DHT22;29440;48.208;11.162;2022-09-09T02:52:08;13.20;99.90
43810;DHT22;29440;48.208;11.162;2022-09-09T02:54:38;13.20;99.90
43810;DHT22;29440;48.208;11.162;2022-09-09T02:59:33;13.20;99.90
43810;DHT22;29440;48.208;11.162;2022-09-09T03:01:59;13.20;99.90
43810;DHT22;29440;48.208;11.162;2022-09-09T03:04:24;13.20;99.90
43810;DHT22;29440;48.208;11.162;2022-09-09T03:06:50;13.20;99.90
43810;DHT22;29440;48.208;11.162;2022-09-09T03:09:16;13.10;99.90
43810;DHT22;29440;48.208;11.162;2022-09-09T03:11:42;13.10;99.90
43810;DHT22;29440;48.208;11.162;2022-09-09T03:14:07;13.10;99.90
43810;DHT22;29440;48.208;11.162;2022-09-09T03:16:33;13.10;99.90
43810;DHT22;29440;48.208;11.162;2022-09-09T03:19:00;13.10;99.90
43810;DHT22;29440;48.208;11.162;2022-09-09T03:21:26;13.10;99.90
43810;DHT22;29440;48.208;11.162;2022-09-09T03:23:51;13.10;99.90
43810;DHT22;29440;48.208;11.162;2022-09-09T03:26:17;13.20;99.90
43810;DHT22;29440;48.208;11.162;2022-09-09T03:28:42;13.20;99.90
43810;DHT22;29440;48.208;11.162;2022-09-09T03:31:08;13.20;99.90
43810;DHT22;29440;48.208;11.162;2022-09-09T03:33:37;13.20;99.90
43810;DHT22;29440;48.208;11.162;2022-09-09T03:36:04;13.20;99.90
43810;DHT22;29440;48.208;11.162;2022-09-09T03:38:29;13.20;99.90
43810;DHT22;29440;48.208;11.162;2022-09-09T03:40:56;13.30;99.90
43810;DHT22;29440;48.208;11.162;2022-09-09T03:43:26;13.30;99.90
43810;DHT22;29440;48.208;11.162;2022-09-09T03:45:52;13.30;99.90
43810;DHT22;29440;48.208;11.162;2022-09-09T03:48:19;13.30;99.90
43810;DHT22;29440;48.208;11.162;2022-09-09T03:50:49;13.30;99.90
43810;DHT22;29440;48.208;11.162;2022-09-09T03:53:16;13.30;99.90
43810;DHT22;29440;48.208;11.162;2022-09-09T03:55:46;13.30;99.90
43810;DHT22;29440;48.208;11.162;2022-09-09T03:58:13;13.20;99.90
43810;DHT22;29440;48.208;11.162;2022-09-09T04:00:39;13.20;99.90
43810;DHT22;29440;48.208;11.162;2022-09-09T04:03:09;13.20;99.90
43810;DHT22;29440;48.208;11.162;2022-09-09T04:05:35;13.20;99.90
43810;DHT22;29440;48.208;11.162;2022-09-09T04:08:05;13.20;99.90
43810;DHT22;29440;48.208;11.162;2022-09-09T04:10:31;13.20;99.90
43810;DHT22;29440;48.208;11.162;2022-09-09T04:12:56;13.20;99.90
43810;DHT22;29440;48.208;11.162;2022-09-09T04:15:22;13.40;99.90
43810;DHT22;29440;48.208;11.162;2022-09-09T04:17:48;13.20;99.90
43810;DHT22;29440;48.208;11.162;2022-09-09T04:20:13;13.30;99.90
43810;DHT22;29440;48.208;11.162;2022-09-09T04:22:39;13.30;99.90
43810;DHT22;29440;48.208;11.162;2022-09-09T04:25:05;13.40;99.90
43810;DHT22;29440;48.208;11.162;2022-09-09T04:27:31;13.40;99.90
43810;DHT22;29440;48.208;11.162;2022-09-09T04:29:57;13.50;99.90
43810;DHT22;29440;48.208;11.162;2022-09-09T04:32:23;13.50;99.90
43810;DHT22;29440;48.208;11.162;2022-09-09T04:34:52;13.60;99.90
43810;DHT22;29440;48.208;11.162;2022-09-09T04:37:17;13.60;99.90
43810;DHT22;29440;48.208;11.162;2022-09-09T04:39:43;13.70;99.90
43810;DHT22;29440;48.208;11.162;2022-09-09T04:42:08;13.70;99.90
43810;DHT22;29440;48.208;11.162;2022-09-09T04:44:34;13.70;99.90
43810;DHT22;29440;48.208;11.162;2022-09-09T04:46:59;13.80;99.90
43810;DHT22;29440;48.208;11.162;2022-09-09T04:49:25;13.70;99.90
43810;DHT22;29440;48.208;11.162;2022-09-09T04:51:51;13.70;99.90
43810;DHT22;29440;48.208;11.162;2022-09-09T04:54:17;13.70;99.90
43810;DHT22;29440;48.208;11.162;2022-09-09T04:56:42;13.70;99.90
43810;DHT22;29440;48.208;11.162;2022-09-09T04:59:08;13.80;99.90
43810;DHT22;29440;48.208;11.162;2022-09-09T05:01:35;13.80;99.90
43810;DHT22;29440;48.208;11.162;2022-09-09T05:04:02;13.80;99.90
43810;DHT22;29440;48.208;11.162;2022-09-09T05:06:28;13.80;99.90
43810;DHT22;29440;48.208;11.162;2022-09-09T05:08:55;13.80;99.90
43810;DHT22;29440;48.208;11.162;2022-09-09T05:13:50;13.80;99.90
43810;DHT22;29440;48.208;11.162;2022-09-09T05:16:16;13.80;99.90
43810;DHT22;29440;48.208;11.162;2022-09-09T05:18:43;13.80;99.90
43810;DHT22;29440;48.208;11.162;2022-09-09T05:21:10;13.80;99.90
43810;DHT22;29440;48.208;11.162;2022-09-09T05:23:35;13.90;99.90
43810;DHT22;29440;48.208;11.162;2022-09-09T05:26:01;13.90;99.90
43810;DHT22;29440;48.208;11.162;2022-09-09T05:28:28;14.00;99.90
43810;DHT22;29440;48.208;11.162;2022-09-09T05:30:58;14.00;99.90
43810;DHT22;29440;48.208;11.162;2022-09-09T05:33:26;14.10;99.90
43810;DHT22;29440;48.208;11.162;2022-09-09T05:36:06;14.20;99.90
43810;DHT22;29440;48.208;11.162;2022-09-09T05:38:33;14.30;99.90
43810;DHT22;29440;48.208;11.162;2022-09-09T05:40:59;14.30;99.90
43810;DHT22;29440;48.208;11.162;2022-09-09T05:43:26;14.40;99.90
43810;DHT22;29440;48.208;11.162;2022-09-09T05:46:07;14.50;99.90
43810;DHT22;29440;48.208;11.162;2022-09-09T05:48:36;14.60;99.90
43810;DHT22;29440;48.208;11.162;2022-09-09T05:51:03;14.60;99.90
43810;DHT22;29440;48.208;11.162;2022-09-09T05:53:29;14.70;99.90
43810;DHT22;29440;48.208;11.162;2022-09-09T05:56:11;14.80;99.90
43810;DHT22;29440;48.208;11.162;2022-09-09T05:58:38;14.80;99.90
43810;DHT22;29440;48.208;11.162;2022-09-09T06:01:12;14.90;99.90
43810;DHT22;29440;48.208;11.162;2022-09-09T06:03:42;15.00;99.90
43810;DHT22;29440;48.208;11.162;2022-09-09T06:06:11;15.00;99.90
43810;DHT22;29440;48.208;11.162;2022-09-09T06:08:39;15.10;99.90
43810;DHT22;29440;48.208;11.162;2022-09-09T06:11:07;15.10;99.90
43810;DHT22;29440;48.208;11.162;2022-09-09T06:13:33;15.20;99.90
43810;DHT22;29440;48.208;11.162;2022-09-09T06:15:59;15.20;99.90
43810;DHT22;29440;48.208;11.162;2022-09-09T06:18:25;15.30;99.90
43810;DHT22;29440;48.208;11.162;2022-09-09T06:23:24;15.40;99.90
43810;DHT22;29440;48.208;11.162;2022-09-09T06:25:51;15.40;99.90
43810;DHT22;29440;48.208;11.162;2022-09-09T06:28:17;15.50;99.90
43810;DHT22;29440;48.208;11.162;2022-09-09T06:30:43;15.50;99.90
43810;DHT22;29440;48.208;11.162;2022-09-09T06:33:10;15.50;99.90
43810;DHT22;29440;48.208;11.162;2022-09-09T06:35:35;15.50;99.90
43810;DHT22;29440;48.208;11.162;2022-09-09T06:38:01;15.60;99.90
43810;DHT22;29440;48.208;11.162;2022-09-09T06:40:26;15.60;99.90
43810;DHT22;29440;48.208;11.162;2022-09-09T06:42:52;15.60;99.90
43810;DHT22;29440;48.208;11.162;2022-09-09T06:45:18;15.60;99.90
43810;DHT22;29440;48.208;11.162;2022-09-09T06:47:44;15.60;99.90
43810;DHT22;29440;48.208;11.162;2022-09-09T06:50:09;15.70;99.90
43810;DHT22;29440;48.208;11.162;2022-09-09T06:52:36;15.80;99.90
43810;DHT22;29440;48.208;11.162;2022-09-09T06:55:02;15.70;99.90
43810;DHT22;29440;48.208;11.162;2022-09-09T06:57:28;15.80;99.90
43810;DHT22;29440;48.208;11.162;2022-09-09T06:59:53;15.80;99.90
43810;DHT22;29440;48.208;11.162;2022-09-09T07:02:19;15.90;99.90
43810;DHT22;29440;48.208;11.162;2022-09-09T07:04:45;15.90;99.90
43810;DHT22;29440;48.208;11.162;2022-09-09T07:07:10;16.00;99.90
43810;DHT22;29440;48.208;11.162;2022-09-09T07:09:38;16.00;99.90
43810;DHT22;29440;48.208;11.162;2022-09-09T07:12:05;16.10;99.90
43810;DHT22;29440;48.208;11.162;2022-09-09T07:14:31;16.20;99.90
43810;DHT22;29440;48.208;11.162;2022-09-09T07:16:58;16.20;99.90
43810;DHT22;29440;48.208;11.162;2022-09-09T07:19:23;16.20;99.90
43810;DHT22;29440;48.208;11.162;2022-09-09T07:21:49;16.30;99.90
43810;DHT22;29440;48.208;11.162;2022-09-09T07:24:14;16.40;99.90
43810;DHT22;29440;48.208;11.162;2022-09-09T07:26:40;16.40;99.90
43810;DHT22;29440;48.208;11.162;2022-09-09T07:29:07;16.40;99.90
43810;DHT22;29440;48.208;11.162;2022-09-09T07:31:36;16.40;99.90
43810;DHT22;29440;48.208;11.162;2022-09-09T07:34:03;16.50;99.90
43810;DHT22;29440;48.208;11.162;2022-09-09T07:36:32;16.50;99.90
43810;DHT22;29440;48.208;11.162;2022-09-09T07:39:01;16.50;99.90
43810;DHT22;29440;48.208;11.162;2022-09-09T07:41:30;16.50;99.90
43810;DHT22;29440;48.208;11.162;2022-09-09T07:43:57;16.50;99.90
43810;DHT22;29440;48.208;11.162;2022-09-09T07:46:26;16.50;99.90
43810;DHT22;29440;48.208;11.162;2022-09-09T07:48:56;16.50;99.90
43810;DHT22;29440;48.208;11.162;2022-09-09T07:51:30;16.50;99.90
43810;DHT22;29440;48.208;11.162;2022-09-09T07:53:59;16.50;99.90
43810;DHT22;29440;48.208;11.162;2022-09-09T07:56:26;16.40;99.90
43810;DHT22;29440;48.208;11.162;2022-09-09T07:58:53;16.40;99.90
43810;DHT22;29440;48.208;11.162;2022-09-09T08:01:26;16.40;99.90
43810;DHT22;29440;48.208;11.162;2022-09-09T08:03:58;16.50;99.90
43810;DHT22;29440;48.208;11.162;2022-09-09T08:06:33;16.50;99.90
43810;DHT22;29440;48.208;11.162;2022-09-09T08:08:59;16.50;99.90
43810;DHT22;29440;48.208;11.162;2022-09-09T08:11:27;16.50;99.90
43810;DHT22;29440;48.208;11.162;2022-09-09T08:13:53;16.60;99.90
43810;DHT22;29440;48.208;11.162;2022-09-09T08:16:22;16.70;99.90
43810;DHT22;29440;48.208;11.162;2022-09-09T08:18:49;16.70;99.90
43810;DHT22;29440;48.208;11.162;2022-09-09T08:21:23;16.80;99.90
43810;DHT22;29440;48.208;11.162;2022-09-09T08:23:51;16.90;99.90
43810;DHT22;29440;48.208;11.162;2022-09-09T08:26:20;16.90;99.90
43810;DHT22;29440;48.208;11.162;2022-09-09T08:28:48;17.10;99.90
43810;DHT22;29440;48.208;11.162;2022-09-09T08:31:17;17.20;99.90
43810;DHT22;29440;48.208;11.162;2022-09-09T08:33:44;17.20;99.90
43810;DHT22;29440;48.208;11.162;2022-09-09T08:36:18;17.30;99.90
43810;DHT22;29440;48.208;11.162;2022-09-09T08:38:50;17.40;99.90
43810;DHT22;29440;48.208;11.162;2022-09-09T08:44:11;17.60;99.90
43810;DHT22;29440;48.208;11.162;2022-09-09T08:55:37;17.80;99.90
43810;DHT22;29440;48.208;11.162;2022-09-09T08:58:54;17.80;99.90
43810;DHT22;29440;48.208;11.162;2022-09-09T09:11:40;17.80;99.90
43810;DHT22;29440;48.208;11.162;2022-09-09T09:14:26;17.80;99.90
43810;DHT22;29440;48.208;11.162;2022-09-09T09:17:16;17.70;99.90
43810;DHT22;29440;48.208;11.162;2022-09-09T09:19:43;17.70;99.90
43810;DHT22;29440;48.208;11.162;2022-09-09T09:22:23;17.70;99.90
43810;DHT22;29440;48.208;11.162;2022-09-09T09:27:43;17.60;99.90
43810;DHT22;29440;48.208;11.162;2022-09-09T09:30:19;17.60;99.90
43810;DHT22;29440;48.208;11.162;2022-09-09T09:32:56;17.60;99.90
43810;DHT22;29440;48.208;11.162;2022-09-09T09:35:23;17.60;99.90
43810;DHT22;29440;48.208;11.162;2022-09-09T09:37:49;17.70;99.90
43810;DHT22;29440;48.208;11.162;2022-09-09T09:40:18;17.70;99.90
43810;DHT22;29440;48.208;11.162;2022-09-09T09:45:34;17.80;99.90
43810;DHT22;29440;48.208;11.162;2022-09-09T09:48:03;17.90;99.90
43810;DHT22;29440;48.208;11.162;2022-09-09T09:50:30;17.90;99.90
43810;DHT22;29440;48.208;11.162;2022-09-09T09:53:04;18.00;99.90
43810;DHT22;29440;48.208;11.162;2022-09-09T09:55:31;18.10;99.90
43810;DHT22;29440;48.208;11.162;2022-09-09T09:58:04;18.20;99.90
43810;DHT22;29440;48.208;11.162;2022-09-09T10:00:30;18.30;99.90
43810;DHT22;29440;48.208;11.162;2022-09-09T10:02:56;18.30;99.90
43810;DHT22;29440;48.208;11.162;2022-09-09T10:05:26;18.40;99.90
43810;DHT22;29440;48.208;11.162;2022-09-09T10:08:13;18.30;99.90
43810;DHT22;29440;48.208;11.162;2022-09-09T10:14:32;18.40;99.90
43810;DHT22;29440;48.208;11.162;2022-09-09T10:17:03;18.50;99.90
43810;DHT22;29440;48.208;11.162;2022-09-09T10:19:34;18.50;99.90
43810;DHT22;29440;48.208;11.162;2022-09-09T10:25:17;18.40;99.90
43810;DHT22;29440;48.208;11.162;2022-09-09T10:28:05;18.40;99.90
43810;DHT22;29440;48.208;11.162;2022-09-09T10:30:46;18.50;99.90
43810;DHT22;29440;48.208;11.162;2022-09-09T10:33:28;18.50;99.90
43810;DHT22;29440;48.208;11.162;2022-09-09T10:38:40;18.60;99.90
43810;DHT22;29440;48.208;11.162;2022-09-09T10:41:19;18.60;99.90
43810;DHT22;29440;48.208;11.162;2022-09-09T10:46:42;18.60;99.90
43810;DHT22;29440;48.208;11.162;2022-09-09T10:49:29;18.60;99.90
43810;DHT22;29440;48.208;11.162;2022-09-09T10:52:14;18.60;99.90
43810;DHT22;29440;48.208;11.162;2022-09-09T10:57:32;18.70;99.90
43810;DHT22;29440;48.208;11.162;2022-09-09T11:00:16;18.70;99.90
43810;DHT22;29440;48.208;11.162;2022-09-09T11:02:42;18.70;99.90
43810;DHT22;29440;48.208;11.162;2022-09-09T11:05:39;18.70;99.90
43810;DHT22;29440;48.208;11.162;2022-09-09T11:08:16;18.80;99.90
43810;DHT22;29440;48.208;11.162;2022-09-09T11:10:59;18.80;99.90
43810;DHT22;29440;48.208;11.162;2022-09-09T11:13:51;18.90;99.90
43810;DHT22;29440;48.208;11.162;2022-09-09T11:19:22;19.00;99.90
43810;DHT22;29440;48.208;11.162;2022-09-09T11:21:51;19.10;99.90
43810;DHT22;29440;48.208;11.162;2022-09-09T11:24:45;19.20;99.90
43810;DHT22;29440;48.208;11.162;2022-09-09T11:27:21;19.20;99.90
43810;DHT22;29440;48.208;11.162;2022-09-09T11:36:38;19.70;99.90
43810;DHT22;29440;48.208;11.162;2022-09-09T11:41:42;19.90;99.90
43810;DHT22;29440;48.208;11.162;2022-09-09T11:44:12;19.90;99.90
43810;DHT22;29440;48.208;11.162;2022-09-09T11:46:42;20.10;99.90
43810;DHT22;29440;48.208;11.162;2022-09-09T11:51:56;20.20;99.90
43810;DHT22;29440;48.208;11.162;2022-09-09T11:54:33;20.30;99.90
43810;DHT22;29440;48.208;11.162;2022-09-09T11:57:02;20.40;99.90
43810;DHT22;29440;48.208;11.162;2022-09-09T11:59:31;20.40;99.90
43810;DHT22;29440;48.208;11.162;2022-09-09T12:02:14;20.40;99.90
43810;DHT22;29440;48.208;11.162;2022-09-09T12:05:07;20.40;99.90
43810;DHT22;29440;48.208;11.162;2022-09-09T12:07:38;20.30;99.90
43810;DHT22;29440;48.208;11.162;2022-09-09T12:10:30;20.40;99.90
43810;DHT22;29440;48.208;11.162;2022-09-09T12:13:29;20.40;99.90
43810;DHT22;29440;48.208;11.162;2022-09-09T12:15:58;20.40;99.90
43810;DHT22;29440;48.208;11.162;2022-09-09T12:18:31;20.30;99.90
43810;DHT22;29440;48.208;11.162;2022-09-09T12:21:36;20.30;99.90
43810;DHT22;29440;48.208;11.162;2022-09-09T12:24:11;20.20;99.90
43810;DHT22;29440;48.208;11.162;2022-09-09T12:26:55;20.20;99.90
43810;DHT22;29440;48.208;11.162;2022-09-09T12:30:09;20.20;99.90
43810;DHT22;29440;48.208;11.162;2022-09-09T12:32:22;20.20;99.90
43810;DHT22;29440;48.208;11.162;2022-09-09T12:35:10;20.10;99.90
43810;DHT22;29440;48.208;11.162;2022-09-09T12:37:41;20.10;99.90
43810;DHT22;29440;48.208;11.162;2022-09-09T12:42:47;19.90;99.90
43810;DHT22;29440;48.208;11.162;2022-09-09T12:45:19;19.90;99.90
43810;DHT22;29440;48.208;11.162;2022-09-09T12:47:53;19.90;99.90
43810;DHT22;29440;48.208;11.162;2022-09-09T12:50:23;19.90;99.90
43810;DHT22;29440;48.208;11.162;2022-09-09T12:52:57;19.90;99.90
43810;DHT22;29440;48.208;11.162;2022-09-09T12:55:28;19.90;99.90
43810;DHT22;29440;48.208;11.162;2022-09-09T12:57:57;19.90;99.90
43810;DHT22;29440;48.208;11.162;2022-09-09T13:00:25;19.90;99.90
43810;DHT22;29440;48.208;11.162;2022-09-09T13:02:54;20.00;99.90
43810;DHT22;29440;48.208;11.162;2022-09-09T13:05:23;19.90;99.90
43810;DHT22;29440;48.208;11.162;2022-09-09T13:07:49;19.90;99.90
43810;DHT22;29440;48.208;11.162;2022-09-09T13:10:22;19.90;99.90
43810;DHT22;29440;48.208;11.162;2022-09-09T13:12:49;19.90;99.90
43810;DHT22;29440;48.208;11.162;2022-09-09T13:15:24;19.80;99.90
43810;DHT22;29440;48.208;11.162;2022-09-09T13:17:57;19.80;99.90
43810;DHT22;29440;48.208;11.162;2022-09-09T13:20:26;19.90;99.90
43810;DHT22;29440;48.208;11.162;2022-09-09T13:22:54;20.10;99.90
43810;DHT22;29440;48.208;11.162;2022-09-09T13:25:26;20.10;99.90
43810;DHT22;29440;48.208;11.162;2022-09-09T13:28:03;20.10;99.90
43810;DHT22;29440;48.208;11.162;2022-09-09T13:30:32;20.20;99.90
43810;DHT22;29440;48.208;11.162;2022-09-09T13:33:16;20.30;99.90
43810;DHT22;29440;48.208;11.162;2022-09-09T13:36:00;20.60;99.90
43810;DHT22;29440;48.208;11.162;2022-09-09T13:38:29;20.60;99.90
43810;DHT22;29440;48.208;11.162;2022-09-09T13:40:58;20.70;99.90
43810;DHT22;29440;48.208;11.162;2022-09-09T13:43:27;20.60;99.90
43810;DHT22;29440;48.208;11.162;2022-09-09T13:46:00;20.60;99.90
43810;DHT22;29440;48.208;11.162;2022-09-09T13:48:26;20.60;99.90
43810;DHT22;29440;48.208;11.162;2022-09-09T13:51:01;20.70;99.90
43810;DHT22;29440;48.208;11.162;2022-09-09T13:53:28;20.70;99.90
43810;DHT22;29440;48.208;11.162;2022-09-09T13:55:54;20.80;99.90
43810;DHT22;29440;48.208;11.162;2022-09-09T13:58:20;20.60;99.90
43810;DHT22;29440;48.208;11.162;2022-09-09T14:00:47;20.70;99.90
43810;DHT22;29440;48.208;11.162;2022-09-09T14:03:13;20.80;99.90
43810;DHT22;29440;48.208;11.162;2022-09-09T14:05:39;20.80;99.90
43810;DHT22;29440;48.208;11.162;2022-09-09T14:08:06;20.80;99.90
43810;DHT22;29440;48.208;11.162;2022-09-09T14:11:18;20.90;99.90
43810;DHT22;29440;48.208;11.162;2022-09-09T14:13:30;21.00;99.90
43810;DHT22;29440;48.208;11.162;2022-09-09T14:15:56;21.30;99.90
43810;DHT22;29440;48.208;11.162;2022-09-09T14:18:22;21.30;99.90
43810;DHT22;29440;48.208;11.162;2022-09-09T14:20:48;21.40;99.90
43810;DHT22;29440;48.208;11.162;2022-09-09T14:23:17;21.30;99.90
43810;DHT22;29440;48.208;11.162;2022-09-09T14:25:44;21.30;99.90
43810;DHT22;29440;48.208;11.162;2022-09-09T14:28:11;21.50;99.90
43810;DHT22;29440;48.208;11.162;2022-09-09T14:30:39;21.30;99.90
43810;DHT22;29440;48.208;11.162;2022-09-09T14:33:06;21.10;99.90
43810;DHT22;29440;48.208;11.162;2022-09-09T14:35:32;21.20;99.90
43810;DHT22;29440;48.208;11.162;2022-09-09T14:37:59;21.20;99.90
43810;DHT22;29440;48.208;11.162;2022-09-09T14:40:26;21.00;99.90
43810;DHT22;29440;48.208;11.162;2022-09-09T14:42:53;21.10;99.90
43810;DHT22;29440;48.208;11.162;2022-09-09T14:45:22;21.30;99.90
43810;DHT22;29440;48.208;11.162;2022-09-09T14:47:50;21.30;99.90
43810;DHT22;29440;48.208;11.162;2022-09-09T14:50:17;21.40;99.90
43810;DHT22;29440;48.208;11.162;2022-09-09T14:52:42;21.40;99.90
43810;DHT22;29440;48.208;11.162;2022-09-09T14:55:08;21.50;99.90
43810;DHT22;29440;48.208;11.162;2022-09-09T14:57:34;21.50;99.90
43810;DHT22;29440;48.208;11.162;2022-09-09T15:00:02;21.40;99.90
43810;DHT22;29440;48.208;11.162;2022-09-09T15:02:29;21.30;99.90
43810;DHT22;29440;48.208;11.162;2022-09-09T15:04:55;21.20;99.90
43810;DHT22;29440;48.208;11.162;2022-09-09T15:07:24;21.20;99.90
43810;DHT22;29440;48.208;11.162;2022-09-09T15:09:50;21.00;99.90
43810;DHT22;29440;48.208;11.162;2022-09-09T15:12:16;21.00;99.90
43810;DHT22;29440;48.208;11.162;2022-09-09T15:14:44;20.90;99.90
43810;DHT22;29440;48.208;11.162;2022-09-09T15:17:11;20.80;99.90
43810;DHT22;29440;48.208;11.162;2022-09-09T15:19:38;20.70;99.90
43810;DHT22;29440;48.208;11.162;2022-09-09T15:22:05;20.50;99.90
43810;DHT22;29440;48.208;11.162;2022-09-09T15:24:34;20.40;99.90
43810;DHT22;29440;48.208;11.162;2022-09-09T15:27:01;20.50;99.90
43810;DHT22;29440;48.208;11.162;2022-09-09T15:29:28;20.30;99.90
43810;DHT22;29440;48.208;11.162;2022-09-09T15:31:54;20.30;99.90
43810;DHT22;29440;48.208;11.162;2022-09-09T15:34:23;20.10;99.90
43810;DHT22;29440;48.208;11.162;2022-09-09T15:36:50;20.00;99.90
43810;DHT22;29440;48.208;11.162;2022-09-09T15:39:17;19.90;99.90
43810;DHT22;29440;48.208;11.162;2022-09-09T15:41:47;19.80;99.90
43810;DHT22;29440;48.208;11.162;2022-09-09T15:44:14;19.80;99.90
43810;DHT22;29440;48.208;11.162;2022-09-09T15:46:41;19.80;99.90
43810;DHT22;29440;48.208;11.162;2022-09-09T15:49:22;19.90;99.90
43810;DHT22;29440;48.208;11.162;2022-09-09T15:51:53;19.90;99.90
43810;DHT22;29440;48.208;11.162;2022-09-09T15:54:22;20.00;99.90
43810;DHT22;29440;48.208;11.162;2022-09-09T15:56:56;20.20;99.90
43810;DHT22;29440;48.208;11.162;2022-09-09T15:59:27;20.20;99.90
43810;DHT22;29440;48.208;11.162;2022-09-09T16:01:56;20.30;99.90
43810;DHT22;29440;48.208;11.162;2022-09-09T16:04:25;20.30;99.90
43810;DHT22;29440;48.208;11.162;2022-09-09T16:07:04;20.30;99.90
43810;DHT22;29440;48.208;11.162;2022-09-09T16:09:31;20.30;99.90
43810;DHT22;29440;48.208;11.162;2022-09-09T16:12:00;20.20;99.90
43810;DHT22;29440;48.208;11.162;2022-09-09T16:14:26;20.10;99.90
43810;DHT22;29440;48.208;11.162;2022-09-09T16:16:52;20.20;99.90
43810;DHT22;29440;48.208;11.162;2022-09-09T16:19:18;20.20;99.90
43810;DHT22;29440;48.208;11.162;2022-09-09T16:21:47;20.10;99.90
43810;DHT22;29440;48.208;11.162;2022-09-09T16:24:16;20.10;99.90
43810;DHT22;29440;48.208;11.162;2022-09-09T16:26:45;20.30;99.90
43810;DHT22;29440;48.208;11.162;2022-09-09T16:29:12;20.10;99.90
43810;DHT22;29440;48.208;11.162;2022-09-09T16:31:38;20.20;99.90
43810;DHT22;29440;48.208;11.162;2022-09-09T16:34:06;20.20;99.90
43810;DHT22;29440;48.208;11.162;2022-09-09T16:36:34;20.20;99.90
43810;DHT22;29440;48.208;11.162;2022-09-09T16:39:03;20.30;99.90
43810;DHT22;29440;48.208;11.162;2022-09-09T16:41:30;20.30;99.90
43810;DHT22;29440;48.208;11.162;2022-09-09T16:44:00;20.10;99.90
43810;DHT22;29440;48.208;11.162;2022-09-09T16:46:29;20.10;99.90
43810;DHT22;29440;48.208;11.162;2022-09-09T16:49:00;20.10;99.90
43810;DHT22;29440;48.208;11.162;2022-09-09T16:51:31;20.00;99.90
43810;DHT22;29440;48.208;11.162;2022-09-09T16:53:59;19.90;99.90
43810;DHT22;29440;48.208;11.162;2022-09-09T16:56:28;19.90;99.90
43810;DHT22;29440;48.208;11.162;2022-09-09T16:58:56;19.90;99.90
43810;DHT22;29440;48.208;11.162;2022-09-09T17:01:24;19.80;99.90
43810;DHT22;29440;48.208;11.162;2022-09-09T17:03:58;19.70;99.90
43810;DHT22;29440;48.208;11.162;2022-09-09T17:06:24;19.60;99.90
43810;DHT22;29440;48.208;11.162;2022-09-09T17:08:58;19.50;99.90
43810;DHT22;29440;48.208;11.162;2022-09-09T17:11:25;19.40;99.90
43810;DHT22;29440;48.208;11.162;2022-09-09T17:13:52;19.20;99.90
43810;DHT22;29440;48.208;11.162;2022-09-09T17:16:20;19.30;99.90
43810;DHT22;29440;48.208;11.162;2022-09-09T17:18:53;19.10;99.90
43810;DHT22;29440;48.208;11.162;2022-09-09T17:21:21;19.20;99.90
43810;DHT22;29440;48.208;11.162;2022-09-09T17:23:49;18.90;99.90
43810;DHT22;29440;48.208;11.162;2022-09-09T17:26:16;18.90;99.90
43810;DHT22;29440;48.208;11.162;2022-09-09T17:28:42;18.90;99.90
43810;DHT22;29440;48.208;11.162;2022-09-09T17:31:10;18.80;99.90